Tiempo atmosférico en la estación meteorológica de Torrelavega, Sierrapando, Cantabria (100 m.)



Fecha
DESCASC
Temp. máxima en grados centígrados (hora)
DESCASC
Temp. mínima en grados centígrados (hora)
DESCASC
Temp. media en grados centígrados
DESCASC
Racha de viento máxima en m/sg (hora)
DESCASC
Velocidad máxima media en intervalos de 10 minutos(hora)
DESCASC
Precipitaciones diarias en mm
DESCASC
Precipitaciones de 00:00 a 06:00 en mm
DESCASC
Precipitaciones de 06:00 a 12:00 en mm
DESCASC
Precipitaciones de 12:00 a 18:00 en mm
DESCASC
Precipitaciones de 18:00 a 24:00 en mm
DESCASC
24-09-2020 21.5 (16:10) 12.3 (23:30) 16.9 25 (21:10) 14.72 (21:10) 7.4 4 0 0.6 2.8
23-09-2020 23 (12:20) 16 (00:00) 19.5 11.11 (14:00) 7.5 (14:00) 4.8 0 0 0 4.8
22-09-2020 22.7 (13:10) 14.3 (00:00) 18.5 6.67 (14:40) 4.44 (14:00) -- 0 0 -- 0
21-09-2020 22.5 (12:20) 15 (00:00) 18.8 5.83 (14:50) 4.17 (06:10) 1.2 0 1.2 0 0
20-09-2020 22.6 (12:50) 14.1 (00:00) 18.4 6.39 (16:20) 4.72 (16:20) 0 0 0 0 0
19-09-2020 21.3 (11:50) 16.8 (00:00) 19 13.89 (02:50) 7.78 (13:30) 1.4 0 0.4 1 0
18-09-2020 28.5 (16:10) 18.5 (00:00) 23.5 20.56 (03:10) 13.33 (03:20) 0.2 0 0.2 0 0
17-09-2020 30.2 (15:40) 19.4 (00:00) 24.8 10.28 (22:50) 6.67 (22:50) 0 0 0 0 0
16-09-2020 25 (14:50) 17 (00:00) 21 7.22 (15:30) 5 (15:30) 0 0 0 0 0
15-09-2020 24.4 (13:40) 17.9 (00:00) 21.1 8.61 (03:30) 5.28 (07:00) 4.6 4.6 0 0 0
14-09-2020 28.6 (05:30) 19.7 (00:00) 24.2 9.44 (05:40) 5.83 (13:50) 2 0 0 0 2
13-09-2020 31.9 (15:00) 14.7 (00:00) 23.3 6.67 (04:00) 5.56 (06:50) 0 0 0 0 0
12-09-2020 26.2 (14:30) 16 (00:00) 21.1 7.22 (14:50) 5.56 (14:50) 0 0 0 0 0
11-09-2020 26.4 (14:40) 14.6 (00:00) 20.5 7.78 (16:30) 6.11 (15:10) 0 0 0 0 0
10-09-2020 23.9 (14:30) 14.3 (00:00) 19.1 5.83 (13:40) 3.89 (14:40) 0 0 0 0 0
09-09-2020 23.8 (13:20) 12.4 (00:00) 18.1 6.11 (02:00) 4.72 (13:50) 0 0 0 0 0
08-09-2020 23.4 (14:40) 11.6 (00:00) 17.5 11.39 (14:50) 8.61 (16:40) 0 0 0 0 0
07-09-2020 21.8 (16:20) 14.5 (23:50) 18.1 9.17 (13:00) 5.83 (18:40) 0 0 0 0 0
06-09-2020 20.7 (16:50) 15.7 (00:00) 18.2 7.78 (19:30) 5.56 (19:30) 0 0 0 0 0
05-09-2020 21.5 (15:00) 17.1 (00:00) 19.3 7.22 (23:20) 5.28 (19:40) 0.6 0 0 0 0.6
04-09-2020 27.2 (13:10) 14.7 (00:00) 21 6.39 (22:50) 4.44 (14:10) 0 0 0 0 0
03-09-2020 26.3 (15:40) 13 (00:00) 19.6 6.39 (16:10) 4.72 (16:10) 0 0 0 0 0
02-09-2020 23.2 (13:10) 14.7 (00:00) 19 8.61 (16:00) 6.39 (16:00) 0 0 0 0 0
01-09-2020 23.1 (14:30) 13.4 (00:00) 18.3 6.94 (13:50) 4.44 (16:40) 0 0 0 0 0
31-08-2020 24 (15:40) 10.5 (00:00) 17.3 6.67 (11:00) 4.72 (08:30) 0 0 0 0 0
30-08-2020 18.2 (19:20) 12.7 (00:00) 15.5 10.56 (12:10) 6.94 (12:20) 27.2 3.4 5 18.8 0
29-08-2020 19.3 (15:10) 13.5 (00:00) 16.4 15.56 (16:40) 10.83 (16:30) 17.8 0.8 6.8 8.4 1.8
28-08-2020 20.9 (00:00) 15.9 (00:00) 18.4 13.33 (16:30) 8.61 (16:30) 1 0.6 0.4 0 0
27-08-2020 26 (11:30) 18.9 (00:00) 22.4 8.61 (12:10) 6.39 (12:00) 0 0 0 0 0
26-08-2020 27 (14:00) 19.9 (00:00) 23.4 9.17 (15:40) 6.39 (15:20) 0 0 0 0 0

Gráficas

Temp. máximas Temp. mínimas Temp. medias Precipitaciones Rachas de viento máximas Velocidades máximas media en intervalos de 10 minutos

Datos horarios

Fecha y hora oficial Temperatura (ºC) Velocidad del viento (km/h) Dirección del viento Racha (km/h) Dirección de racha Precipitación (mm) Presión (hPa) Tendencia (hPa) Humedad (%)
2020-09-24 23:00:00 13.3 33 Oeste 62 Noroeste 1.6 -- -- 92
2020-09-24 22:00:00 14.3 40 Noroeste 90 Noroeste 0 -- -- 86
2020-09-24 21:00:00 16.7 43 Noroeste 74 Oeste 0 -- -- 77
2020-09-24 20:00:00 17.4 36 Noroeste 63 Noroeste 0 -- -- 72
2020-09-24 19:00:00 18.2 39 Noroeste 62 Oeste 0 -- -- 68
2020-09-24 18:00:00 18.7 26 Noroeste 45 Oeste 0 -- -- 67
2020-09-24 17:00:00 17.3 23 Noroeste 57 Noroeste 0.6 -- -- 81
2020-09-24 16:00:00 21.1 19 Noroeste 32 Noroeste 0 -- -- 55
2020-09-24 15:00:00 20.8 15 Norte 23 Norte 0 -- -- 66
2020-09-24 14:00:00 20.4 5 Norte 18 Norte 0 -- -- 65
2020-09-24 13:00:00 19.2 8 Noroeste 23 Noroeste 0 -- -- 69
2020-09-24 12:00:00 18.2 9 Oeste 16 Oeste 0 -- -- 72
2020-09-24 11:00:00 17.1 8 Sudoeste 13 Sudoeste 0 -- -- 79
2020-09-24 10:00:00 16.3 6 Sudoeste 15 Sudoeste 0 -- -- 82
2020-09-24 09:00:00 15.6 11 Sudoeste 16 Sudoeste 0 -- -- 86
2020-09-24 08:00:00 15.1 9 Sudoeste 16 Sudoeste 0 -- -- 89
2020-09-24 07:00:00 15.1 9 Oeste 18 Oeste 0 -- -- 93
2020-09-24 06:00:00 15.3 7 Oeste 23 Oeste 0 -- -- 96
2020-09-24 05:00:00 15.6 13 Oeste 26 Oeste 0.8 -- -- 97
2020-09-24 04:00:00 16.3 12 Oeste 23 Oeste 0.4 -- -- 96
2020-09-24 03:00:00 16.3 8 Oeste 18 Oeste 0.2 -- -- 96
2020-09-24 02:00:00 16.4 7 Oeste 20 Noroeste 0.6 -- -- 96
2020-09-24 01:00:00 16.5 12 Oeste 25 Oeste 2 -- -- 96
2020-09-24 00:00:00 16.6 9 Oeste 18 Sudoeste 4.4 -- -- 96
2020-09-23 23:00:00 17.3 9 Sudoeste 15 Sudoeste 0.4 -- -- 96
2020-09-23 22:00:00 17.4 6 Nordeste 12 Norte 0 -- -- 95
2020-09-23 21:00:00 17.8 6 Sur 7 Sur 0 -- -- 94
2020-09-23 20:00:00 18 0 Calma 12 Noroeste 0 -- -- 92
2020-09-23 19:00:00 18.3 7 Noroeste 17 Noroeste 0 -- -- 90
2020-09-23 18:00:00 19.3 10 Noroeste 27 Noroeste 0 -- -- 85
2020-09-23 17:00:00 19.7 13 Noroeste 22 Noroeste 0 -- -- 82
2020-09-23 16:00:00 20.7 10 Noroeste 27 Oeste 0 -- -- 79
2020-09-23 15:00:00 20.5 15 Noroeste 37 Noroeste 0 -- -- 78
2020-09-23 14:00:00 20.6 27 Noroeste 40 Noroeste 0 -- -- 75
2020-09-23 13:00:00 21.6 22 Noroeste 32 Noroeste 0 -- -- 72
2020-09-23 12:00:00 22.6 10 Oeste 22 Oeste 0 -- -- 66
2020-09-23 11:00:00 20.3 4 Noroeste 26 Oeste 0 -- -- 74
2020-09-23 10:00:00 18.9 14 Oeste 20 Oeste 0 -- -- 77
2020-09-23 09:00:00 18.5 9 Oeste 15 Oeste 0 -- -- 76
2020-09-23 08:00:00 17.1 9 Sur 21 Sudeste 0 -- -- 84
2020-09-23 07:00:00 16.5 8 Sur 19 Sudeste 0 -- -- 90
2020-09-23 06:00:00 16.2 15 Sudeste 23 Sudeste 0 -- -- 94
2020-09-23 05:00:00 16.1 10 Sudeste 20 Sudeste 0 -- -- 95
2020-09-23 04:00:00 16.1 11 Sudeste 14 Sudeste 0 -- -- 96
2020-09-23 03:00:00 16.1 10 Sur 17 Sudeste 0 -- -- 96
2020-09-23 02:00:00 16.6 6 Sur 10 Sur 0 -- -- 94
2020-09-23 01:00:00 17.6 3 Sudoeste 6 Sur 0 -- -- 92
2020-09-23 00:00:00 18.2 4 Sur 9 Sudoeste 0 -- -- 91
2020-09-22 23:00:00 18.4 6 Sudoeste 8 Sudoeste 0 -- -- 90
2020-09-22 22:00:00 18.5 5 Oeste 6 Oeste 0 -- -- 90
2020-09-22 21:00:00 18.6 4 Oeste 8 Noroeste 0 -- -- 89
2020-09-22 20:00:00 18.9 6 Noroeste 11 Noroeste 0 -- -- 88
2020-09-22 19:00:00 19.5 6 Norte 12 Norte 0 -- -- 85
2020-09-22 18:00:00 19.5 8 Norte 14 Norte 0 -- -- 84
2020-09-22 17:00:00 20 10 Norte 21 Noroeste 0 -- -- 83
2020-09-22 16:00:00 20.4 12 Norte 18 Norte 0 -- -- 79
2020-09-22 15:00:00 20.5 11 Norte 24 Norte 0 -- -- 79
2020-09-22 14:00:00 21.3 16 Norte -- -- -- -- -- 78
2020-09-22 13:00:00 -- -- -- -- -- -- -- -- --
2020-09-22 12:00:00 20.7 3 Sur 7 Nordeste 0 -- -- 75
2020-09-22 11:00:00 19.7 2 Sur 9 Sudoeste 0 -- -- 80
2020-09-22 10:00:00 17.2 5 Sudoeste 9 Sudoeste 0 -- -- 92
2020-09-22 09:00:00 15.2 6 Sur 11 Sur 0 -- -- 97
2020-09-22 08:00:00 14.4 5 Sudoeste 15 Sudoeste 0 -- -- 98
2020-09-22 07:00:00 14.5 10 Sudoeste 17 Sudoeste 0 -- -- 97
2020-09-22 06:00:00 14.9 8 Sur 14 Sudeste 0 -- -- 97
2020-09-22 05:00:00 15.2 6 Sur 10 Sudoeste 0 -- -- 96
2020-09-22 04:00:00 15.6 6 Sudoeste 11 Sur 0 -- -- 96
2020-09-22 03:00:00 15.8 8 Sudoeste 12 Sudoeste 0 -- -- 96
2020-09-22 02:00:00 16.2 6 Sur 12 Sudeste 0 -- -- 95
2020-09-22 01:00:00 16.6 7 Sudeste 13 Sudoeste 0 -- -- 95
2020-09-22 00:00:00 16.9 9 Sudoeste 11 Sudoeste 0 -- -- 93
2020-09-21 23:00:00 17.5 7 Sudoeste 9 Sudoeste 0 -- -- 92
2020-09-21 22:00:00 17.9 4 Oeste 10 Oeste 0 -- -- 91
2020-09-21 21:00:00 18.4 7 Oeste 13 Noroeste 0 -- -- 90
2020-09-21 20:00:00 19 9 Noroeste 17 Noroeste 0 -- -- 87
2020-09-21 19:00:00 20.1 13 Noroeste 19 Noroeste 0 -- -- 81
2020-09-21 18:00:00 21.2 12 Noroeste 19 Norte 0 -- -- 75
2020-09-21 17:00:00 22.2 12 Norte 18 Noroeste 0 -- -- 75
2020-09-21 16:00:00 21.6 12 Norte 20 Nordeste 0 -- -- 70
2020-09-21 15:00:00 22.2 11 Norte 21 Nordeste 0 -- -- 70
2020-09-21 14:00:00 21.8 12 Norte 18 Norte 0 -- -- 78
2020-09-21 13:00:00 21.2 7 Nordeste 13 Norte 0 -- -- 78
2020-09-21 12:00:00 21.6 3 Oeste 10 Sudoeste 0 -- -- 76
2020-09-21 11:00:00 18.8 6 Sudoeste 10 Sudoeste 0 -- -- 87
2020-09-21 10:00:00 16.6 6 Sur 10 Sudoeste 0 -- -- 94
2020-09-21 09:00:00 15.5 6 Sur 11 Sudoeste 0 -- -- 96
2020-09-21 08:00:00 15.3 10 Sudoeste 14 Sudoeste 1.2 -- -- 96
2020-09-21 07:00:00 15.2 9 Sudoeste 21 Sudoeste 0 -- -- 96
2020-09-21 06:00:00 15.3 12 Sudoeste 17 Sudoeste 0 -- -- 95
2020-09-21 05:00:00 15.6 11 Sudoeste 17 Sudoeste 0 -- -- 95
2020-09-21 04:00:00 15.8 11 Sudoeste 15 Sudoeste 0 -- -- 95
2020-09-21 03:00:00 16 10 Sudoeste 14 Sudoeste 0 -- -- 95
2020-09-21 02:00:00 16.5 8 Sudoeste 13 Sudoeste 0 -- -- 94
2020-09-21 01:00:00 16.6 9 Sudoeste 14 Sudoeste 0 -- -- 94
2020-09-21 00:00:00 17.1 10 Sudoeste 12 Sudoeste 0 -- -- 93
2020-09-20 23:00:00 17.8 8 Sudoeste 9 Sudoeste 0 -- -- 93
2020-09-20 22:00:00 18.2 7 Sudoeste 11 Oeste 0 -- -- 91
2020-09-20 21:00:00 18.9 8 Oeste 12 Oeste 0 -- -- 89
2020-09-20 20:00:00 19.4 8 Noroeste 15 Noroeste 0 -- -- 88
2020-09-20 19:00:00 20 8 Noroeste 22 Noroeste 0 -- -- 85
2020-09-20 18:00:00 20.4 12 Noroeste 21 Noroeste 0 -- -- 82
2020-09-20 17:00:00 20.9 15 Norte 23 Norte 0 -- -- 81
2020-09-20 16:00:00 22.5 14 Norte 22 Norte 0 -- -- 77
2020-09-20 15:00:00 22.2 14 Norte 18 Noroeste 0 -- -- 75
2020-09-20 14:00:00 21.2 12 Norte 18 Noroeste 0 -- -- 78
2020-09-20 13:00:00 22.5 6 Noroeste 13 Oeste 0 -- -- 70
2020-09-20 12:00:00 21.5 6 Noroeste 10 Noroeste 0 -- -- 72
2020-09-20 11:00:00 20 4 Oeste 12 Sudoeste 0 -- -- 73
2020-09-20 10:00:00 17.2 5 Sudoeste 10 Sur 0 -- -- 82
2020-09-20 09:00:00 15.1 6 Sur 12 Sudoeste 0 -- -- 90
2020-09-20 08:00:00 14.1 9 Sur 20 Sudoeste 0 -- -- 92
2020-09-20 07:00:00 14.6 12 Sudoeste 18 Sudoeste 0 -- -- 91
2020-09-20 06:00:00 14.7 7 Sur 12 Sudoeste 0 -- -- 91
2020-09-20 05:00:00 15 8 Sur 13 Sur 0 -- -- 91
2020-09-20 04:00:00 15.3 14 Sudoeste 19 Sudoeste 0 -- -- 90
2020-09-20 03:00:00 15.9 9 Sur 15 Sudoeste 0 -- -- 90
2020-09-20 02:00:00 16.2 12 Sudoeste 18 Sudoeste 0 -- -- 89
2020-09-20 01:00:00 17.4 10 Sudoeste 20 Oeste 0 -- -- 85
2020-09-20 00:00:00 18.1 13 Sudoeste 22 Sudoeste 0 -- -- 82
2020-09-19 23:00:00 17.8 11 Sudoeste 21 Oeste 0 -- -- 83
2020-09-19 22:00:00 18.3 12 Oeste 18 Oeste 0 -- -- 83
2020-09-19 21:00:00 18.4 5 Oeste 17 Oeste 0 -- -- 84
2020-09-19 20:00:00 19.2 9 Oeste 14 Noroeste 0 -- -- 85
2020-09-19 19:00:00 19.5 8 Noroeste 17 Noroeste 0 -- -- 85
2020-09-19 18:00:00 19.3 3 Noroeste 17 Oeste 0.2 -- -- 89
2020-09-19 17:00:00 18.7 13 Oeste 23 Oeste 0.4 -- -- 89
2020-09-19 16:00:00 19.5 13 Oeste 23 Oeste 0 -- -- 82
2020-09-19 15:00:00 18 13 Oeste 31 Oeste 0.4 -- -- 88
2020-09-19 14:00:00 18.2 13 Oeste 41 Oeste 0 -- -- 84
2020-09-19 13:00:00 19.7 22 Oeste 37 Noroeste 0 -- -- 77
2020-09-19 12:00:00 21.3 4 Oeste 13 Sudoeste 0 -- -- 70
2020-09-19 11:00:00 19.7 8 Sudoeste 12 Oeste 0 -- -- 76
2020-09-19 10:00:00 19.2 5 Sur 19 Sur 0 -- -- 75
2020-09-19 09:00:00 18.2 12 Sudoeste 21 Sudoeste 0 -- -- 80
2020-09-19 08:00:00 17.2 12 Sudoeste 20 Sudoeste 0 -- -- 86
2020-09-19 07:00:00 16.8 11 Sudoeste 25 Oeste 0.4 -- -- 88
2020-09-19 06:00:00 17.5 11 Sudoeste 17 Sudoeste 0 -- -- 72
2020-09-19 05:00:00 18.6 11 Sudoeste 28 Sudoeste 0 -- -- 66
2020-09-19 04:00:00 19.3 10 Oeste 28 Sur 0 -- -- 64
2020-09-19 03:00:00 19.9 26 Sur 50 Sur 0 -- -- 64
2020-09-19 02:00:00 19.1 6 Sudeste 18 Sur 0 -- -- 75
2020-09-19 01:00:00 19 12 Sudeste 22 Sudeste 0 -- -- 78
2020-09-19 00:00:00 19.8 13 Sur 25 Sur 0 -- -- 73
2020-09-18 23:00:00 20.8 5 Sudoeste 26 Sur 0 -- -- 70
2020-09-18 22:00:00 19.8 8 Sur 13 Sudoeste 0 -- -- 90
2020-09-18 21:00:00 20.1 4 Oeste 10 Oeste 0 -- -- 87
2020-09-18 20:00:00 21.9 6 Oeste 12 Oeste 0 -- -- 81
2020-09-18 19:00:00 23.2 7 Oeste 16 Norte 0 -- -- 75
2020-09-18 18:00:00 23.6 12 Norte 19 Norte 0 -- -- 71
2020-09-18 17:00:00 22.5 8 Oeste 32 Noroeste 0 -- -- 79
2020-09-18 16:00:00 28.1 25 Sudoeste 48 Sudoeste 0 -- -- 41
2020-09-18 15:00:00 27.3 23 Sur 41 Sur 0 -- -- 43
2020-09-18 14:00:00 24.4 17 Sudoeste 36 Sur 0 -- -- 53
2020-09-18 13:00:00 24.2 17 Sur 49 Sur 0 -- -- 54
2020-09-18 12:00:00 23.2 16 Sur 26 Sur 0 -- -- 60
2020-09-18 11:00:00 22.4 6 Este 19 Sur 0 -- -- 71
2020-09-18 10:00:00 20.1 8 Sudeste 33 Sur 0.2 -- -- 78
2020-09-18 09:00:00 20.8 21 Sur 35 Sur 0 -- -- 74
2020-09-18 08:00:00 19.1 17 Sudeste 35 Sudeste 0 -- -- 85
2020-09-18 07:00:00 18.6 3 Nordeste 10 Sudoeste 0 -- -- 91
2020-09-18 06:00:00 18.7 9 Nordeste 15 Oeste 0 -- -- 90
2020-09-18 05:00:00 19.2 6 Norte 36 Sudeste 0 -- -- 86
2020-09-18 04:00:00 22.2 20 Sudeste 74 Sur 0 -- -- 67
2020-09-18 03:00:00 26.3 40 Sur 69 Sudoeste 0 -- -- 47
2020-09-18 02:00:00 26.9 20 Sudoeste 40 Sudoeste 0 -- -- 51
2020-09-18 01:00:00 25 13 Sudeste 33 Sudeste 0 -- -- 57
2020-09-18 00:00:00 27 19 Sur 32 Sur 0 -- -- 50
2020-09-17 23:00:00 23.6 17 Sur 37 Sudeste 0 -- -- 71
2020-09-17 22:00:00 24.2 18 Sudeste 28 Sudeste 0 -- -- 72
2020-09-17 21:00:00 24.7 5 Este 25 Sudeste 0 -- -- 69
2020-09-17 20:00:00 26 21 Sudeste 26 Sudeste 0 -- -- 62
2020-09-17 19:00:00 27.2 20 Sudeste 26 Este 0 -- -- 63
2020-09-17 18:00:00 27.3 19 Este 25 Este 0 -- -- 69
2020-09-17 17:00:00 29 15 Este 23 Este 0 -- -- 60
2020-09-17 16:00:00 29.8 10 Este 18 Sudeste 0 -- -- 53
2020-09-17 15:00:00 29.3 11 Sudeste 26 Sudeste 0 -- -- 56
2020-09-17 14:00:00 28.7 17 Sudeste 33 Sudeste 0 -- -- 60
2020-09-17 13:00:00 24.8 6 Sudeste 21 Sudeste 0 -- -- 73
2020-09-17 12:00:00 22.3 13 Sudeste 22 Sudeste 0 -- -- 82
2020-09-17 11:00:00 20.7 12 Sudeste 20 Sudeste 0 -- -- 89
2020-09-17 10:00:00 20.5 8 Sur 17 Sudeste 0 -- -- 94
2020-09-17 09:00:00 20 6 Este 17 Sudeste 0 -- -- 96
2020-09-17 08:00:00 19.7 6 Sur 23 Sudeste 0 -- -- 97
2020-09-17 07:00:00 19.5 15 Sudeste 21 Sudeste 0 -- -- 98
2020-09-17 06:00:00 19.6 4 Este 11 Sudoeste 0 -- -- 99
2020-09-17 05:00:00 19.7 7 Sur 15 Sudeste 0 -- -- 98
2020-09-17 04:00:00 19.7 8 Sudeste 12 Sudeste 0 -- -- 98
2020-09-17 03:00:00 19.7 3 Sur 7 Nordeste 0 -- -- 98
2020-09-17 02:00:00 19.8 5 Nordeste 6 Nordeste 0 -- -- 97
2020-09-17 01:00:00 20.2 0 Calma 4 Nordeste 0 -- -- 97
2020-09-17 00:00:00 20.5 2 Este 4 Nordeste 0 -- -- 96
2020-09-16 23:00:00 20.8 0 Calma 9 Sudoeste 0 -- -- 96
2020-09-16 22:00:00 21 5 Nordeste 6 Nordeste 0 -- -- 96
2020-09-16 21:00:00 21.2 3 Norte 8 Nordeste 0 -- -- 95
2020-09-16 20:00:00 21.6 5 Norte 9 Norte 0 -- -- 93
2020-09-16 19:00:00 22.5 6 Norte 15 Norte 0 -- -- 91
2020-09-16 18:00:00 22.6 11 Norte 18 Norte 0 -- -- 89
2020-09-16 17:00:00 23.7 14 Norte 21 Norte 0 -- -- 85
2020-09-16 16:00:00 24.3 15 Norte 26 Norte 0 -- -- 84
2020-09-16 15:00:00 24.9 15 Norte 23 Norte 0 -- -- 82
2020-09-16 14:00:00 24.7 12 Norte 16 Norte 0 -- -- 82
2020-09-16 13:00:00 24 9 Nordeste 14 Nordeste 0 -- -- 81
2020-09-16 12:00:00 22.5 5 Nordeste 9 Norte 0 -- -- 86
2020-09-16 11:00:00 20.6 2 Nordeste 6 Sur 0 -- -- 95
2020-09-16 10:00:00 17.9 4 Sudoeste 9 Sudoeste 0 -- -- 99
2020-09-16 09:00:00 17 6 Sudoeste 11 Sudoeste 0 -- -- 98
2020-09-16 08:00:00 17.2 7 Sudoeste 10 Sudoeste 0 -- -- 98
2020-09-16 07:00:00 17.7 6 Sudoeste 9 Sudoeste 0 -- -- 98
2020-09-16 06:00:00 17.6 3 Sur 9 Sur 0 -- -- 97
2020-09-16 05:00:00 18 6 Sudeste 10 Sur 0 -- -- 97
2020-09-16 04:00:00 18.1 8 Sudoeste 11 Sudoeste 0 -- -- 97
2020-09-16 03:00:00 18.1 9 Sudoeste 12 Sudoeste 0 -- -- 97
2020-09-16 02:00:00 18.4 7 Sudoeste 10 Oeste 0 -- -- 96
2020-09-16 01:00:00 18.8 6 Sudoeste 9 Sudoeste 0 -- -- 95
2020-09-16 00:00:00 19.5 4 Sur 6 Sur 0 -- -- 95
2020-09-15 23:00:00 19.8 5 Sur 7 Sur 0 -- -- 93
2020-09-15 22:00:00 20.5 3 Sudeste 4 Sudeste 0 -- -- 92
2020-09-15 21:00:00 20.7 0 Calma 5 Norte 0 -- -- 90
2020-09-15 20:00:00 21.2 3 Norte 10 Norte 0 -- -- 89
2020-09-15 19:00:00 22.2 7 Norte 12 Norte 0 -- -- 84
2020-09-15 18:00:00 23.1 9 Noroeste 17 Noroeste 0 -- -- 81
2020-09-15 17:00:00 23.4 13 Norte 20 Nordeste 0 -- -- 81
2020-09-15 16:00:00 23.5 12 Norte 19 Norte 0 -- -- 76
2020-09-15 15:00:00 23.9 14 Norte 19 Nordeste 0 -- -- 76
2020-09-15 14:00:00 24.2 12 Norte 18 Nordeste 0 -- -- 77
2020-09-15 13:00:00 23.9 7 Norte 15 Noroeste 0 -- -- 77
2020-09-15 12:00:00 23.2 6 Norte 14 Oeste 0 -- -- 80
2020-09-15 11:00:00 21.8 9 Oeste 23 Oeste 0 -- -- 83
2020-09-15 10:00:00 20.5 12 Oeste 19 Oeste 0 -- -- 85
2020-09-15 09:00:00 19.1 11 Oeste 18 Oeste 0 -- -- 87
2020-09-15 08:00:00 18.8 9 Noroeste 27 Sudeste 0 -- -- 83
2020-09-15 07:00:00 18.3 19 Sudeste 27 Sudeste 0 -- -- 91
2020-09-15 06:00:00 18.1 12 Sudeste 17 Sudeste 0 -- -- 94
2020-09-15 05:00:00 18.3 5 Nordeste 11 Sudoeste 0 -- -- 93
2020-09-15 04:00:00 18.6 9 Oeste 31 Sudoeste 1 -- -- 91
2020-09-15 03:00:00 19 8 Sudeste 26 Sudeste 0.4 -- -- 90
2020-09-15 02:00:00 18.7 8 Sudeste 23 Sudeste 2.6 -- -- 92
2020-09-15 01:00:00 18.7 12 Sur 22 Sur 0.6 -- -- 92
2020-09-15 00:00:00 19.7 6 Nordeste 17 Noroeste 2 -- -- 86
2020-09-14 23:00:00 20.6 18 Oeste 33 Oeste 0 -- -- 79
2020-09-14 22:00:00 20 11 Oeste 16 Oeste 0 -- -- 79
2020-09-14 21:00:00 20.6 4 Noroeste 15 Nordeste 0 -- -- 76
2020-09-14 20:00:00 22.3 13 Nordeste 17 Nordeste 0 -- -- 69
2020-09-14 19:00:00 25.2 4 Sudeste 7 Este 0 -- -- 57
2020-09-14 18:00:00 23.5 5 Noroeste 22 Oeste 0 -- -- 60
2020-09-14 17:00:00 23 9 Noroeste 21 Nordeste 0 -- -- 60
2020-09-14 16:00:00 25.2 9 Noroeste 29 Oeste 0 -- -- 54
2020-09-14 15:00:00 27 18 Noroeste 32 Noroeste 0 -- -- 49
2020-09-14 14:00:00 26.6 19 Noroeste 33 Noroeste 0 -- -- 47
2020-09-14 13:00:00 27 14 Noroeste 22 Norte 0 -- -- 50
2020-09-14 12:00:00 25.4 10 Noroeste 16 Norte 0 -- -- 57
2020-09-14 11:00:00 23.4 10 Nordeste 13 Nordeste 0 -- -- 67
2020-09-14 10:00:00 27.8 11 Sur 22 Sudeste 0 -- -- 39
2020-09-14 09:00:00 27.4 14 Sudeste 29 Sudoeste 0 -- -- 40
2020-09-14 08:00:00 26.2 8 Sudoeste 30 Sudeste 0 -- -- 40
2020-09-14 07:00:00 27.5 20 Sur 30 Sur 0 -- -- 37
2020-09-14 06:00:00 27.4 6 Nordeste 34 Sur 0 -- -- 37
2020-09-14 05:00:00 28.2 14 Sur 34 Sur 0 -- -- 35
2020-09-14 04:00:00 27.8 12 Sur 25 Oeste 0 -- -- 38
2020-09-14 03:00:00 26 6 Este 29 Sudoeste 0 -- -- 46
2020-09-14 02:00:00 23.7 15 Sur 26 Sur 0 -- -- 60
2020-09-14 01:00:00 22.2 11 Sur 19 Sur 0 -- -- 71
2020-09-14 00:00:00 23.1 11 Sur 23 Sudeste 0 -- -- 69
2020-09-13 23:00:00 23.9 9 Sur 14 Sudeste 0 -- -- 67
2020-09-13 22:00:00 24.2 8 Sudoeste 12 Sudoeste 0 -- -- 73
2020-09-13 21:00:00 25.6 4 Sur 6 Sur 0 -- -- 70
2020-09-13 20:00:00 26.6 3 Nordeste 10 Norte 0 -- -- 66
2020-09-13 19:00:00 29.3 9 Norte 13 Norte 0 -- -- 61
2020-09-13 18:00:00 30.9 9 Norte 13 Norte 0 -- -- 55
2020-09-13 17:00:00 30.9 9 Norte 18 Nordeste 0 -- -- 53
2020-09-13 16:00:00 31.3 13 Norte 17 Norte 0 -- -- 49
2020-09-13 15:00:00 31.9 10 Norte 14 Norte 0 -- -- 48
2020-09-13 14:00:00 30.9 8 Norte 12 Norte 0 -- -- 50
2020-09-13 13:00:00 28.7 4 Nordeste 8 Nordeste 0 -- -- 56
2020-09-13 12:00:00 25.1 4 Este 15 Sudeste 0 -- -- 61
2020-09-13 11:00:00 22.2 12 Sudeste 17 Sudeste 0 -- -- 61
2020-09-13 10:00:00 18.9 8 Sur 16 Sudeste 0 -- -- 71
2020-09-13 09:00:00 16.4 12 Sudeste 17 Sur 0 -- -- 79
2020-09-13 08:00:00 15 14 Sudeste 24 Sudeste 0 -- -- 87
2020-09-13 07:00:00 15 19 Sur 24 Sur 0 -- -- 90
2020-09-13 06:00:00 15.8 17 Sudeste 23 Sudeste 0 -- -- 88
2020-09-13 05:00:00 16.2 16 Sudeste 24 Sudeste 0 -- -- 90
2020-09-13 04:00:00 16.4 19 Sudeste 24 Sudeste 0 -- -- 92
2020-09-13 03:00:00 16.7 13 Sudeste 22 Sudeste 0 -- -- 93
2020-09-13 02:00:00 17.3 14 Sudeste 19 Sudeste 0 -- -- 94
2020-09-13 01:00:00 17.8 8 Sur 12 Sur 0 -- -- 92
2020-09-13 00:00:00 18.4 4 Sudeste 9 Sur 0 -- -- 89
2020-09-12 23:00:00 19 3 Este 11 Sudeste 0 -- -- 86
2020-09-12 22:00:00 20.1 9 Sudeste 13 Sudeste 0 -- -- 82
2020-09-12 21:00:00 21 6 Sudeste 12 Nordeste 0 -- -- 79
2020-09-12 20:00:00 22.5 6 Nordeste 14 Nordeste 0 -- -- 76
2020-09-12 19:00:00 23.8 9 Nordeste 18 Nordeste 0 -- -- 73
2020-09-12 18:00:00 24.5 12 Nordeste 26 Norte 0 -- -- 71
2020-09-12 17:00:00 25.2 14 Nordeste 24 Norte 0 -- -- 73
2020-09-12 16:00:00 25.7 15 Nordeste 26 Nordeste 0 -- -- 72
2020-09-12 15:00:00 25.5 18 Nordeste 26 Nordeste 0 -- -- 72
2020-09-12 14:00:00 25.8 12 Nordeste 18 Este 0 -- -- 71
2020-09-12 13:00:00 24.6 9 Sudeste 19 Este 0 -- -- 72
2020-09-12 12:00:00 22.8 7 Este 13 Este 0 -- -- 80
2020-09-12 11:00:00 21.5 3 Este 7 Sur 0 -- -- 83
2020-09-12 10:00:00 18.6 5 Sur 14 Sudeste 0 -- -- 90
2020-09-12 09:00:00 16.1 11 Sudeste 14 Sur 0 -- -- 94
2020-09-12 08:00:00 16 8 Sur 18 Sudeste 0 -- -- 94
2020-09-12 07:00:00 16.6 13 Sudeste 17 Sudeste 0 -- -- 95
2020-09-12 06:00:00 16.6 8 Sur 14 Sudeste 0 -- -- 96
2020-09-12 05:00:00 17 10 Sudeste 13 Sudeste 0 -- -- 96
2020-09-12 04:00:00 16.8 6 Sur 12 Sur 0 -- -- 96
2020-09-12 03:00:00 17 8 Sur 13 Sudeste 0 -- -- 95
2020-09-12 02:00:00 17.4 9 Sudeste 14 Sudeste 0 -- -- 95
2020-09-12 01:00:00 17.8 8 Sur 9 Sudeste 0 -- -- 94
2020-09-12 00:00:00 18.5 5 Sur 6 Sur 0 -- -- 91
2020-09-11 23:00:00 19.3 3 Sudeste 6 Este 0 -- -- 88
2020-09-11 22:00:00 19.5 4 Este 8 Este 0 -- -- 88
2020-09-11 21:00:00 19.8 8 Nordeste 12 Nordeste 0 -- -- 87
2020-09-11 20:00:00 21.6 10 Nordeste 15 Nordeste 0 -- -- 82
2020-09-11 19:00:00 23.7 12 Nordeste 24 Nordeste 0 -- -- 75
2020-09-11 18:00:00 24.5 15 Nordeste 23 Nordeste 0 -- -- 74
2020-09-11 17:00:00 25.1 14 Nordeste 28 Nordeste 0 -- -- 73
2020-09-11 16:00:00 25.8 19 Nordeste 27 Este 0 -- -- 70
2020-09-11 15:00:00 26.1 19 Nordeste 26 Nordeste 0 -- -- 68
2020-09-11 14:00:00 26.2 18 Nordeste 25 Nordeste 0 -- -- 66
2020-09-11 13:00:00 25.4 14 Nordeste 18 Nordeste 0 -- -- 67
2020-09-11 12:00:00 24 7 Nordeste 12 Este 0 -- -- 69
2020-09-11 11:00:00 21.6 6 Sudeste 17 Sudeste 0 -- -- 75
2020-09-11 10:00:00 18.6 9 Sudeste 16 Sur 0 -- -- 83
2020-09-11 09:00:00 16.6 8 Sudeste 22 Sudeste 0 -- -- 90
2020-09-11 08:00:00 14.6 11 Sudeste 22 Sudeste 0 -- -- 95
2020-09-11 07:00:00 14.9 12 Sudeste 24 Sudeste 0 -- -- 96
2020-09-11 06:00:00 15.3 12 Sudeste 19 Sudeste 0 -- -- 97
2020-09-11 05:00:00 15.6 12 Sur 18 Sudeste 0 -- -- 97
2020-09-11 04:00:00 16.1 11 Sudeste 18 Sudeste 0 -- -- 96
2020-09-11 03:00:00 15.9 5 Sudoeste 17 Sur 0 -- -- 96
2020-09-11 02:00:00 16.5 12 Sudeste 17 Sudeste 0 -- -- 96
2020-09-11 01:00:00 17.1 8 Sur 11 Sur 0 -- -- 95
2020-09-11 00:00:00 17.6 5 Sudoeste 8 Sudoeste 0 -- -- 94
2020-09-10 23:00:00 18.1 5 Sudoeste 6 Sudoeste 0 -- -- 93
2020-09-10 22:00:00 18.8 0 Calma 5 Nordeste 0 -- -- 92
2020-09-10 21:00:00 19.1 5 Nordeste 9 Nordeste 0 -- -- 90
2020-09-10 20:00:00 20.5 8 Nordeste 13 Nordeste 0 -- -- 84
2020-09-10 19:00:00 21.5 11 Nordeste 18 Norte 0 -- -- 82
2020-09-10 18:00:00 22.7 13 Norte 21 Nordeste 0 -- -- 76
2020-09-10 17:00:00 23.1 13 Norte 19 Norte 0 -- -- 68
2020-09-10 16:00:00 23.4 13 Norte 20 Norte 0 -- -- 70
2020-09-10 15:00:00 23.8 13 Nordeste 21 Nordeste 0 -- -- 58
2020-09-10 14:00:00 23.5 8 Norte 21 Nordeste 0 -- -- 73
2020-09-10 13:00:00 22.8 9 Norte 17 Norte 0 -- -- 76
2020-09-10 12:00:00 21.8 6 Norte 12 Norte 0 -- -- 77
2020-09-10 11:00:00 20.6 5 Sudoeste 10 Oeste 0 -- -- 72
2020-09-10 10:00:00 17.8 4 Sudoeste 8 Sudoeste 0 -- -- 82
2020-09-10 09:00:00 15.6 6 Sudoeste 12 Sudoeste 0 -- -- 92
2020-09-10 08:00:00 14.3 8 Oeste 14 Oeste 0 -- -- 96
2020-09-10 07:00:00 14.7 5 Sudoeste 12 Sudoeste 0 -- -- 96
2020-09-10 06:00:00 14.8 6 Sudoeste 11 Sudoeste 0 -- -- 96
2020-09-10 05:00:00 15.3 9 Sudoeste 17 Sudoeste 0 -- -- 96
2020-09-10 04:00:00 15.7 12 Sudoeste 16 Oeste 0 -- -- 96
2020-09-10 03:00:00 16.1 10 Sudoeste 14 Sudoeste 0 -- -- 95
2020-09-10 02:00:00 16.8 10 Sudoeste 13 Sudoeste 0 -- -- 95
2020-09-10 01:00:00 17.1 10 Sudoeste 15 Sudoeste 0 -- -- 95
2020-09-10 00:00:00 17.3 9 Sudoeste 12 Sudoeste 0 -- -- 94
2020-09-09 23:00:00 18.3 5 Oeste 6 Oeste 0 -- -- 92
2020-09-09 22:00:00 19 3 Sudeste 8 Sur 0 -- -- 91
2020-09-09 21:00:00 19.3 5 Nordeste 12 Norte 0 -- -- 90
2020-09-09 20:00:00 21.6 5 Nordeste 11 Norte 0 -- -- 78
2020-09-09 19:00:00 22.1 9 Nordeste 15 Nordeste 0 -- -- 78
2020-09-09 18:00:00 23 6 Norte 20 Noroeste 0 -- -- 74
2020-09-09 17:00:00 23 12 Norte 21 Nordeste 0 -- -- 75
2020-09-09 16:00:00 22.8 13 Nordeste 22 Nordeste 0 -- -- 72
2020-09-09 15:00:00 23.3 13 Nordeste 22 Norte 0 -- -- 64
2020-09-09 14:00:00 22.6 15 Norte 21 Norte 0 -- -- 66
2020-09-09 13:00:00 23.3 5 Norte 15 Este 0 -- -- 62
2020-09-09 12:00:00 21.8 4 Norte 10 Norte 0 -- -- 69
2020-09-09 11:00:00 19.7 3 Oeste 11 Oeste 0 -- -- 70
2020-09-09 10:00:00 16.6 10 Sudoeste 16 Sudoeste 0 -- -- 82
2020-09-09 09:00:00 13.9 8 Sudoeste 18 Sudoeste 0 -- -- 92
2020-09-09 08:00:00 12.5 10 Sudoeste 12 Sur 0 -- -- 94
2020-09-09 07:00:00 12.5 9 Sudoeste 11 Oeste 0 -- -- 94
2020-09-09 06:00:00 13.1 5 Sudoeste 12 Sudoeste 0 -- -- 93
2020-09-09 05:00:00 13.1 7 Sudoeste 14 Sudeste 0 -- -- 92
2020-09-09 04:00:00 14.1 9 Sur 14 Sudeste 0 -- -- 91
2020-09-09 03:00:00 14.2 10 Sudeste 18 Sudeste 0 -- -- 90
2020-09-09 02:00:00 14.6 15 Sudeste 22 Sudeste 0 -- -- 89
2020-09-09 01:00:00 15.1 16 Sudeste 22 Sudeste 0 -- -- 87
2020-09-09 00:00:00 15.6 9 Sudoeste 13 Sudoeste 0 -- -- 84
2020-09-08 23:00:00 17.2 4 Sudoeste 11 Sudeste 0 -- -- 76
2020-09-08 22:00:00 18.2 5 Sudeste 9 Sudeste 0 -- -- 73
2020-09-08 21:00:00 18.9 8 Este 30 Este 0 -- -- 69
2020-09-08 20:00:00 20.3 20 Este 36 Este 0 -- -- 59
2020-09-08 19:00:00 21.5 24 Este 36 Este 0 -- -- 56
2020-09-08 18:00:00 22.4 24 Este 40 Nordeste 0 -- -- 57
2020-09-08 17:00:00 22.7 27 Este 40 Este 0 -- -- 55
2020-09-08 16:00:00 23 27 Este 40 Este 0 -- -- 54
2020-09-08 15:00:00 23.3 23 Este 41 Este 0 -- -- 54
2020-09-08 14:00:00 23.1 23 Este 31 Nordeste 0 -- -- 58
2020-09-08 13:00:00 22.8 15 Nordeste 23 Nordeste 0 -- -- 61
2020-09-08 12:00:00 21.6 10 Este 19 Sudeste 0 -- -- 64
2020-09-08 11:00:00 19.1 6 Sudeste 10 Sur 0 -- -- 69
2020-09-08 10:00:00 16.1 8 Sur 18 Sur 0 -- -- 76
2020-09-08 09:00:00 13.8 10 Sudeste 21 Sudeste 0 -- -- 81
2020-09-08 08:00:00 12 12 Sur 19 Sudeste 0 -- -- 88
2020-09-08 07:00:00 11.7 10 Sur 22 Sudeste 0 -- -- 89
2020-09-08 06:00:00 12 12 Sudeste 18 Sudeste 0 -- -- 88
2020-09-08 05:00:00 12.1 12 Sudeste 19 Sudeste 0 -- -- 89
2020-09-08 04:00:00 12.4 9 Sur 15 Sudeste 0 -- -- 88
2020-09-08 03:00:00 12.7 9 Sur 18 Sudeste 0 -- -- 88
2020-09-08 02:00:00 13 10 Sur 16 Sudeste 0 -- -- 88
2020-09-08 01:00:00 13.7 8 Sur 13 Sudeste 0 -- -- 87
2020-09-08 00:00:00 14.5 7 Sur 13 Sur 0 -- -- 85
2020-09-07 23:00:00 15 8 Sudoeste 10 Sudoeste 0 -- -- 83
2020-09-07 22:00:00 17 6 Sudeste 14 Este 0 -- -- 74
2020-09-07 21:00:00 17.1 10 Este 20 Nordeste 0 -- -- 74
2020-09-07 20:00:00 18.5 17 Este 25 Nordeste 0 -- -- 69
2020-09-07 19:00:00 19.7 18 Nordeste 28 Nordeste 0 -- -- 64
2020-09-07 18:00:00 20.8 17 Este 27 Nordeste 0 -- -- 61
2020-09-07 17:00:00 20.8 19 Nordeste 29 Norte 0 -- -- 66
2020-09-07 16:00:00 21.3 12 Nordeste 27 Nordeste 0 -- -- 65
2020-09-07 15:00:00 19.6 17 Nordeste 29 Nordeste 0 -- -- 68
2020-09-07 14:00:00 19.9 10 Nordeste 24 Nordeste 0 -- -- 71
2020-09-07 13:00:00 20.3 16 Nordeste 33 Nordeste 0 -- -- 71
2020-09-07 12:00:00 20.5 13 Nordeste 19 Nordeste 0 -- -- 74
2020-09-07 11:00:00 19.7 4 Oeste 9 Sudoeste 0 -- -- 73
2020-09-07 10:00:00 16.9 6 Sudoeste 10 Sudoeste 0 -- -- 90
2020-09-07 09:00:00 15.4 7 Sur 13 Sudoeste 0 -- -- 94
2020-09-07 08:00:00 14.7 8 Sudoeste 13 Oeste 0 -- -- 95
2020-09-07 07:00:00 14.8 10 Sudoeste 15 Sudoeste 0 -- -- 95
2020-09-07 06:00:00 14.7 11 Sudoeste 15 Sudoeste 0 -- -- 94
2020-09-07 05:00:00 15 8 Sudoeste 12 Sudoeste 0 -- -- 94
2020-09-07 04:00:00 15.5 6 Sudoeste 8 Oeste 0 -- -- 93
2020-09-07 03:00:00 15.8 8 Sudoeste 10 Sudoeste 0 -- -- 91
2020-09-07 02:00:00 16 7 Sudoeste 10 Sudoeste 0 -- -- 91
2020-09-07 01:00:00 16.5 6 Sudoeste 9 Sudoeste 0 -- -- 88
2020-09-07 00:00:00 16.8 3 Norte 12 Nordeste 0 -- -- 84
2020-09-06 23:00:00 16.5 9 Nordeste 22 Este 0 -- -- 87
2020-09-06 22:00:00 17.1 7 Noroeste 11 Norte 0 -- -- 82
2020-09-06 21:00:00 17.5 6 Nordeste 19 Nordeste 0 -- -- 78
2020-09-06 20:00:00 18.2 15 Nordeste 28 Nordeste 0 -- -- 76
2020-09-06 19:00:00 18.9 16 Norte 22 Norte 0 -- -- 76
2020-09-06 18:00:00 19.2 12 Noroeste 22 Noroeste 0 -- -- 74
2020-09-06 17:00:00 20.6 14 Noroeste 20 Noroeste 0 -- -- 69
2020-09-06 16:00:00 19.2 12 Noroeste 21 Norte 0 -- -- 73
2020-09-06 15:00:00 19.5 9 Norte 14 Norte 0 -- -- 73
2020-09-06 14:00:00 19.2 10 Nordeste 15 Norte 0 -- -- 73
2020-09-06 13:00:00 18.2 7 Norte 17 Nordeste 0 -- -- 76
2020-09-06 12:00:00 18.4 4 Noroeste 10 Noroeste 0 -- -- 81
2020-09-06 11:00:00 17.7 5 Noroeste 10 Sudoeste 0 -- -- 86
2020-09-06 10:00:00 16.6 6 Oeste 10 Sudoeste 0 -- -- 92
2020-09-06 09:00:00 15.9 5 Sudoeste 9 Sudoeste 0 -- -- 95
2020-09-06 08:00:00 15.7 6 Oeste 12 Oeste 0 -- -- 96
2020-09-06 07:00:00 15.8 5 Oeste 11 Sudoeste 0 -- -- 95
2020-09-06 06:00:00 16 9 Sudoeste 12 Sudoeste 0 -- -- 93
2020-09-06 05:00:00 16.2 3 Este 18 Este 0 -- -- 89
2020-09-06 04:00:00 16.8 12 Nordeste 20 Nordeste 0 -- -- 88
2020-09-06 03:00:00 16.8 10 Nordeste 16 Nordeste 0 -- -- 94
2020-09-06 02:00:00 16.9 0 Calma 6 Nordeste 0 -- -- 95
2020-09-06 01:00:00 16.8 3 Nordeste 10 Sudeste 0 -- -- 95
2020-09-06 00:00:00 17.1 8 Este 26 Nordeste 0.2 -- -- 95
2020-09-05 23:00:00 17.5 14 Nordeste 20 Nordeste 0.4 -- -- 92
2020-09-05 22:00:00 18.5 6 Este 21 Este 0 -- -- 83
2020-09-05 21:00:00 18.6 11 Este 23 Nordeste 0 -- -- 82
2020-09-05 20:00:00 18.8 17 Nordeste 26 Nordeste 0 -- -- 79
2020-09-05 19:00:00 19.1 16 Nordeste 22 Este 0 -- -- 85
2020-09-05 18:00:00 19 15 Nordeste 26 Nordeste 0 -- -- 90
2020-09-05 17:00:00 20.7 10 Norte 15 Norte 0 -- -- 78
2020-09-05 16:00:00 21.1 10 Norte 20 Norte 0 -- -- 77
2020-09-05 15:00:00 21.5 10 Nordeste 17 Norte 0 -- -- 76
2020-09-05 14:00:00 21.3 7 Norte 13 Nordeste 0 -- -- 72
2020-09-05 13:00:00 20.3 10 Nordeste 18 Nordeste 0 -- -- 79
2020-09-05 12:00:00 19.6 14 Nordeste 21 Nordeste 0 -- -- 86
2020-09-05 11:00:00 20.2 9 Nordeste 13 Norte 0 -- -- 84
2020-09-05 10:00:00 19.9 5 Nordeste 9 Nordeste 0 -- -- 88
2020-09-05 09:00:00 19.4 5 Nordeste 13 Nordeste 0 -- -- 89
2020-09-05 08:00:00 19.2 10 Norte 14 Norte 0 -- -- 91
2020-09-05 07:00:00 19.6 6 Norte 10 Noroeste 0 -- -- 92
2020-09-05 06:00:00 19.7 7 Noroeste 17 Noroeste 0 -- -- 91
2020-09-05 05:00:00 19.9 7 Oeste 14 Oeste 0 -- -- 90
2020-09-05 04:00:00 20 10 Oeste 22 Oeste 0 -- -- 88
2020-09-05 03:00:00 20.2 13 Oeste 26 Oeste 0 -- -- 88
2020-09-05 02:00:00 20.3 11 Oeste 19 Oeste 0 -- -- 87
2020-09-05 01:00:00 20.3 12 Oeste 22 Oeste 0 -- -- 89
2020-09-05 00:00:00 20.2 12 Oeste 20 Oeste 0 -- -- 91
2020-09-04 23:00:00 20.3 13 Oeste 23 Oeste 0 -- -- 91
2020-09-04 22:00:00 20.3 10 Noroeste 18 Noroeste 0 -- -- 88
2020-09-04 21:00:00 21 6 Nordeste 12 Norte 0 -- -- 84
2020-09-04 20:00:00 24.1 5 Norte 8 Norte 0 -- -- 70
2020-09-04 19:00:00 24.9 6 Nordeste 14 Nordeste 0 -- -- 67
2020-09-04 18:00:00 25.2 10 Nordeste 16 Nordeste 0 -- -- 67
2020-09-04 17:00:00 25.6 12 Nordeste 18 Nordeste 0 -- -- 66
2020-09-04 16:00:00 25.7 12 Nordeste 19 Nordeste 0 -- -- 65
2020-09-04 15:00:00 25.3 13 Nordeste 21 Nordeste 0 -- -- 67
2020-09-04 14:00:00 25.7 15 Norte 20 Norte 0 -- -- 65
2020-09-04 13:00:00 26.8 4 Nordeste 10 Nordeste 0 -- -- 64
2020-09-04 12:00:00 24.2 3 Nordeste 7 Norte 0 -- -- 65
2020-09-04 11:00:00 22.6 2 Sudoeste 6 Oeste 0 -- -- 69
2020-09-04 10:00:00 18.6 4 Oeste 11 Oeste 0 -- -- 79
2020-09-04 09:00:00 16.5 10 Oeste 17 Sudoeste 0 -- -- 84
2020-09-04 08:00:00 14.9 6 Sudoeste 12 Sudoeste 0 -- -- 91
2020-09-04 07:00:00 15.3 9 Sur 13 Sudeste 0 -- -- 87
2020-09-04 06:00:00 15.9 6 Sudeste 15 Sudeste 0 -- -- 86
2020-09-04 05:00:00 16.2 11 Sudeste 16 Sudeste 0 -- -- 86
2020-09-04 04:00:00 16.4 13 Sudeste 15 Sudeste 0 -- -- 88
2020-09-04 03:00:00 17 5 Sudoeste 8 Sudoeste 0 -- -- 90
2020-09-04 02:00:00 17.4 6 Sur 11 Sudeste 0 -- -- 90
2020-09-04 01:00:00 18.1 8 Sur 13 Sudeste 0 -- -- 87
2020-09-04 00:00:00 18.7 8 Sudeste 13 Sudeste 0 -- -- 85
2020-09-03 23:00:00 19.5 10 Sudeste 17 Sudeste 0 -- -- 81
2020-09-03 22:00:00 20.7 0 Calma 4 Nordeste 0 -- -- 72
2020-09-03 21:00:00 21.4 4 Nordeste 8 Norte 0 -- -- 68
2020-09-03 20:00:00 23 7 Norte 12 Nordeste 0 -- -- 65
2020-09-03 19:00:00 24.3 8 Norte 12 Norte 0 -- -- 63
2020-09-03 18:00:00 24.8 9 Norte 19 Norte 0 -- -- 58
2020-09-03 17:00:00 25.5 13 Norte 23 Norte 0 -- -- 58
2020-09-03 16:00:00 25.8 16 Norte 22 Norte 0 -- -- 60
2020-09-03 15:00:00 26.1 8 Norte 15 Nordeste 0 -- -- 56
2020-09-03 14:00:00 25 6 Norte 13 Norte 0 -- -- 56
2020-09-03 13:00:00 23.9 8 Norte 13 Nordeste 0 -- -- 60
2020-09-03 12:00:00 22.5 5 Nordeste 10 Nordeste 0 -- -- 67
2020-09-03 11:00:00 20.6 6 Sudeste 17 Sudeste 0 -- -- 69
2020-09-03 10:00:00 17.7 10 Sudeste 17 Sudeste 0 -- -- 76
2020-09-03 09:00:00 15.5 9 Sudeste 15 Sudeste 0 -- -- 83
2020-09-03 08:00:00 13.1 11 Sudeste 21 Sudeste 0 -- -- 92
2020-09-03 07:00:00 13.5 14 Sudeste 19 Sudeste 0 -- -- 92
2020-09-03 06:00:00 13.7 12 Sudeste 19 Sudeste 0 -- -- 92
2020-09-03 05:00:00 13.6 10 Sur 15 Sur 0 -- -- 92
2020-09-03 04:00:00 14.2 12 Sudeste 20 Sudeste 0 -- -- 91
2020-09-03 03:00:00 14.6 14 Sudeste 19 Sudeste 0 -- -- 91
2020-09-03 02:00:00 14.8 13 Sudeste 20 Sudeste 0 -- -- 89
2020-09-03 01:00:00 15.4 10 Sur 14 Sudeste 0 -- -- 86
2020-09-03 00:00:00 16.4 9 Sur 12 Sudeste 0 -- -- 79
2020-09-02 23:00:00 17.9 3 Sur 8 Sudeste 0 -- -- 68
2020-09-02 22:00:00 18.5 5 Sur 11 Sudeste 0 -- -- 66
2020-09-02 21:00:00 19.4 6 Este 18 Nordeste 0 -- -- 64
2020-09-02 20:00:00 21 11 Nordeste 24 Nordeste 0 -- -- 65
2020-09-02 19:00:00 22 16 Nordeste 25 Este 0 -- -- 66
2020-09-02 18:00:00 22.8 16 Este 27 Este 0 -- -- 66
2020-09-02 17:00:00 23.1 17 Nordeste 31 Nordeste 0 -- -- 64
2020-09-02 16:00:00 22.7 23 Nordeste 31 Nordeste 0 -- -- 67
2020-09-02 15:00:00 22.7 18 Nordeste 28 Nordeste 0 -- -- 72
2020-09-02 14:00:00 22.2 16 Nordeste 24 Nordeste 0 -- -- 74
2020-09-02 13:00:00 22.9 10 Nordeste 17 Sudeste 0 -- -- 65
2020-09-02 12:00:00 21.9 5 Nordeste -- -- -- -- -- 67
2020-09-02 11:00:00 -- 3 Nordeste 8 Sudoeste 0 -- -- --
2020-09-02 10:00:00 18 5 Sudoeste 9 Sudoeste 0 -- -- 85
2020-09-02 09:00:00 15.8 6 Sur 17 Sudeste 0 -- -- 92
2020-09-02 08:00:00 15 6 Sur 14 Sudoeste 0 -- -- 94
2020-09-02 07:00:00 14.8 9 Sudoeste 11 Sudoeste 0 -- -- 95
2020-09-02 06:00:00 15 7 Sudoeste 12 Sudeste 0 -- -- 94
2020-09-02 05:00:00 15.7 7 Sur 12 Sudoeste 0 -- -- 93
2020-09-02 04:00:00 16.1 8 Sur 10 Sudoeste 0 -- -- 92
2020-09-02 03:00:00 16.2 7 Sudoeste 9 Sudoeste 0 -- -- 92
2020-09-02 02:00:00 16.4 6 Sudoeste 14 Sudeste 0 -- -- 91
2020-09-02 01:00:00 16.9 7 Sur 9 Sur 0 -- -- 89
2020-09-02 00:00:00 17.1 7 Sudoeste 8 Sudoeste 0 -- -- 88
2020-09-01 23:00:00 17.8 3 Sur 6 Noroeste 0 -- -- 85
2020-09-01 22:00:00 18.4 5 Norte 8 Norte 0 -- -- 83
2020-09-01 21:00:00 18.4 4 Nordeste 13 Norte 0 -- -- 83
2020-09-01 20:00:00 19.4 10 Nordeste 21 Norte 0 -- -- 79
2020-09-01 19:00:00 21.2 15 Norte 22 Norte 0 -- -- 74
2020-09-01 18:00:00 21.3 13 Norte 21 Norte 0 -- -- 72
2020-09-01 17:00:00 22.1 13 Nordeste 22 Norte 0 -- -- 61
2020-09-01 16:00:00 22.5 15 Nordeste 22 Nordeste 0 -- -- 65
2020-09-01 15:00:00 22.9 10 Nordeste 22 Nordeste 0 -- -- 58
2020-09-01 14:00:00 21.7 10 Norte 25 Nordeste 0 -- -- 63
2020-09-01 13:00:00 22.5 7 Nordeste 12 Norte 0 -- -- 62
2020-09-01 12:00:00 20.7 5 Norte 10 Norte 0 -- -- 69
2020-09-01 11:00:00 20 3 Oeste 8 Sur 0 -- -- 69
2020-09-01 10:00:00 18.5 4 Sur 10 Sur 0 -- -- 67
2020-09-01 09:00:00 15.9 6 Sur 9 Sur 0 -- -- 75
2020-09-01 08:00:00 13.4 6 Sudoeste 14 Sudeste 0 -- -- 82
2020-09-01 07:00:00 13.7 8 Sudoeste 12 Sur 0 -- -- 80
2020-09-01 06:00:00 13.9 5 Sudoeste 12 Sudoeste 0 -- -- 83
2020-09-01 05:00:00 14.8 8 Sudoeste 14 Sudeste 0 -- -- 78
2020-09-01 04:00:00 14.8 7 Sur 11 Sur 0 -- -- 79
2020-09-01 03:00:00 15.2 7 Sur 13 Sur 0 -- -- 79
2020-09-01 02:00:00 15.5 7 Sur 21 Sudeste 0 -- -- 80
2020-09-01 01:00:00 16.2 10 Sudeste 15 Sudeste 0 -- -- 78
2020-09-01 00:00:00 16.6 7 Sur 16 Sudeste 0 -- -- 81
2020-08-31 23:00:00 17.2 9 Sur 15 Sudeste 0 -- -- 83
2020-08-31 22:00:00 18 8 Sur 10 Sur 0 -- -- 81
2020-08-31 21:00:00 18.8 5 Este 12 Este 0 -- -- 75
2020-08-31 20:00:00 20 4 Norte 12 Este 0 -- -- 75
2020-08-31 19:00:00 20.4 7 Nordeste 19 Nordeste 0 -- -- 73
2020-08-31 18:00:00 21.8 16 Este 21 Este 0 -- -- 67
2020-08-31 17:00:00 23.4 13 Este 20 Este 0 -- -- 60
2020-08-31 16:00:00 23.1 13 Nordeste 21 Nordeste 0 -- -- 57
2020-08-31 15:00:00 22.9 11 Nordeste 17 Nordeste 0 -- -- 58
2020-08-31 14:00:00 22.1 8 Nordeste 15 Nordeste 0 -- -- 60
2020-08-31 13:00:00 21.6 7 Nordeste 14 Sudeste 0 -- -- 60
2020-08-31 12:00:00 20.4 11 Sudeste 21 Sudeste 0 -- -- 61
2020-08-31 11:00:00 18 17 Sudeste 24 Sudeste 0 -- -- 67
2020-08-31 10:00:00 15.6 13 Sudeste 23 Sudeste 0 -- -- 75
2020-08-31 09:00:00 13.2 10 Sur 22 Sudeste 0 -- -- 82
2020-08-31 08:00:00 10.8 15 Sudeste 21 Sudeste 0 -- -- 90
2020-08-31 07:00:00 10.7 13 Sur 22 Sudeste 0 -- -- 90
2020-08-31 06:00:00 10.8 16 Sudeste 23 Sudeste 0 -- -- 91
2020-08-31 05:00:00 10.8 15 Sudeste 21 Sudeste 0 -- -- 92
2020-08-31 04:00:00 11.2 9 Sur 14 Sudeste 0 -- -- 92
2020-08-31 03:00:00 11.8 11 Sudeste 15 Sudeste 0 -- -- 92
2020-08-31 02:00:00 11.7 8 Sur 15 Sudeste 0 -- -- 93
2020-08-31 01:00:00 12.2 8 Sur 18 Sudeste 0 -- -- 92
2020-08-31 00:00:00 12.9 8 Sur 16 Sudeste 0 -- -- 91
2020-08-30 23:00:00 13.9 10 Sur 17 Sudeste 0 -- -- 90
2020-08-30 22:00:00 14.5 12 Sudeste 15 Sudeste 0 -- -- 87
2020-08-30 21:00:00 15.8 7 Sudeste 13 Sudeste 0 -- -- 83
2020-08-30 20:00:00 17.8 3 Este 6 Sudeste 0 -- -- 75
2020-08-30 19:00:00 17.4 4 Sudeste 10 Sudeste 0 -- -- 79
2020-08-30 18:00:00 17.3 5 Sudeste 12 Este 0 -- -- 85
2020-08-30 17:00:00 14.6 4 Noroeste 14 Nordeste 1.4 -- -- 96
2020-08-30 16:00:00 13.7 5 Nordeste 28 Nordeste 11 -- -- 97
2020-08-30 15:00:00 15.6 11 Sur 18 Sudeste 1.2 -- -- 90
2020-08-30 14:00:00 16.7 13 Oeste 26 Oeste 0 -- -- 83
2020-08-30 13:00:00 13.9 8 Norte 38 Noroeste 5.2 -- -- 93
2020-08-30 12:00:00 17.2 14 Oeste 29 Oeste 0 -- -- 76
2020-08-30 11:00:00 16.2 20 Oeste 31 Oeste 0 -- -- 80
2020-08-30 10:00:00 14.5 14 Sudoeste 26 Sudoeste 0.2 -- -- 91
2020-08-30 09:00:00 12.7 19 Oeste 29 Oeste 2.8 -- -- 94
2020-08-30 08:00:00 12.9 13 Sudoeste 29 Sudoeste 2 -- -- 93
2020-08-30 07:00:00 13.1 10 Sudoeste 18 Sudoeste 0 -- -- 93
2020-08-30 06:00:00 12.8 10 Sudoeste 20 Oeste 0 -- -- 94
2020-08-30 05:00:00 12.9 8 Oeste 16 Sudoeste 0.6 -- -- 94
2020-08-30 04:00:00 13 7 Sudoeste 24 Sudoeste 0.4 -- -- 95
2020-08-30 03:00:00 13.1 18 Sudoeste 26 Oeste 0 -- -- 95
2020-08-30 02:00:00 13 14 Sudoeste 22 Oeste 0.2 -- -- 95
2020-08-30 01:00:00 13.2 11 Oeste 23 Sudoeste 2.2 -- -- 94
2020-08-30 00:00:00 13.5 6 Sudoeste 24 Sudoeste 0 -- -- 94
2020-08-29 23:00:00 13.7 9 Sudoeste 47 Norte 1.8 -- -- 91
2020-08-29 22:00:00 16 19 Noroeste 52 Noroeste 0 -- -- 76
2020-08-29 21:00:00 16.3 14 Noroeste 28 Noroeste 0 -- -- 71
2020-08-29 20:00:00 16.7 15 Norte 42 Norte 0 -- -- 71
2020-08-29 19:00:00 17.2 25 Norte 44 Norte 0 -- -- 68
2020-08-29 18:00:00 17.5 34 Norte 49 Norte 0 -- -- 75
2020-08-29 17:00:00 16.4 26 Norte 56 Norte 2.4 -- -- 92
2020-08-29 16:00:00 16 26 Norte 44 Norte 0.4 -- -- 88
2020-08-29 15:00:00 18.7 22 Norte 35 Noroeste 0 -- -- 80
2020-08-29 14:00:00 16 11 Noroeste 28 Noroeste 3.4 -- -- 91
2020-08-29 13:00:00 15.9 13 Oeste 27 Oeste 2.2 -- -- 93
2020-08-29 12:00:00 14.6 16 Oeste 38 Oeste 3.2 -- -- 94
2020-08-29 11:00:00 14.6 19 Oeste 33 Oeste 0.2 -- -- 91
2020-08-29 10:00:00 13.7 12 Sudoeste 23 Sudoeste 1.6 -- -- 93
2020-08-29 09:00:00 13.9 12 Oeste 25 Oeste 0.4 -- -- 91
2020-08-29 08:00:00 13.8 13 Oeste 25 Oeste 0 -- -- 89
2020-08-29 07:00:00 13.8 9 Sudoeste 23 Oeste 1.4 -- -- 89
2020-08-29 06:00:00 14 10 Sudoeste 15 Sudoeste 0 -- -- 86
2020-08-29 05:00:00 14.4 9 Oeste 22 Oeste 0 -- -- 84
2020-08-29 04:00:00 13.8 9 Sudoeste 21 Sudoeste 0 -- -- 87
2020-08-29 03:00:00 13.9 10 Oeste 19 Oeste 0 -- -- 88
2020-08-29 02:00:00 14 6 Sudoeste 26 Oeste 0.4 -- -- 90
2020-08-29 01:00:00 15.2 18 Oeste 33 Oeste 0.4 -- -- 83
2020-08-29 00:00:00 16.2 14 Oeste 28 Oeste 0 -- -- 72
2020-08-28 23:00:00 16.1 12 Oeste 41 Oeste 0 -- -- 81
2020-08-28 22:00:00 17.8 19 Oeste 42 Noroeste 0 -- -- 72
2020-08-28 21:00:00 18.1 22 Noroeste 44 Noroeste 0 -- -- 70
2020-08-28 20:00:00 18.8 27 Noroeste 44 Noroeste 0 -- -- 66
2020-08-28 19:00:00 18.7 23 Noroeste 43 Noroeste 0 -- -- 69
2020-08-28 18:00:00 18.8 24 Noroeste 41 Noroeste 0 -- -- 69
2020-08-28 17:00:00 18.8 24 Noroeste 48 Noroeste 0 -- -- 70
2020-08-28 16:00:00 19.2 22 Noroeste 43 Noroeste 0 -- -- 75
2020-08-28 15:00:00 18.6 21 Noroeste 35 Norte 0 -- -- 81
2020-08-28 14:00:00 18.9 24 Noroeste 40 Noroeste 0 -- -- 78
2020-08-28 13:00:00 18.9 19 Noroeste 35 Oeste 0 -- -- 76
2020-08-28 12:00:00 17.6 7 Oeste 15 Oeste 0 -- -- 93
2020-08-28 11:00:00 16.1 10 Oeste 22 Oeste 0.2 -- -- 96
2020-08-28 10:00:00 16.3 3 Sur 15 Sudoeste 0 -- -- 96
2020-08-28 09:00:00 16.2 12 Sudoeste 17 Sudoeste 0 -- -- 97
2020-08-28 08:00:00 16.5 9 Sudoeste 18 Oeste 0.2 -- -- 97
2020-08-28 07:00:00 16.4 10 Oeste 29 Noroeste 0 -- -- 96
2020-08-28 06:00:00 16.7 16 Noroeste 31 Noroeste 0.2 -- -- 97
2020-08-28 05:00:00 17.4 17 Noroeste 40 Noroeste 0 -- -- 97
2020-08-28 04:00:00 18.4 15 Oeste 32 Noroeste 0 -- -- 97
2020-08-28 03:00:00 19.2 20 Noroeste 30 Noroeste 0.4 -- -- 96
2020-08-28 02:00:00 20.4 12 Oeste 18 Oeste 0 -- -- 91
2020-08-28 01:00:00 20.6 7 Sudoeste 13 Oeste 0 -- -- 92
2020-08-28 00:00:00 20.9 8 Sudoeste 10 Sudoeste 0 -- -- 92
2020-08-27 23:00:00 21.1 3 Sur 6 Sur 0 -- -- 90
2020-08-27 22:00:00 21.3 5 Sudoeste 8 Oeste 0 -- -- 88
2020-08-27 21:00:00 21.8 3 Noroeste 12 Noroeste 0 -- -- 84
2020-08-27 20:00:00 22.3 8 Norte 15 Noroeste 0 -- -- 82
2020-08-27 19:00:00 22.6 5 Norte 12 Norte 0 -- -- 82
2020-08-27 18:00:00 22.8 8 Noroeste 17 Noroeste 0 -- -- 81
2020-08-27 17:00:00 22.9 12 Noroeste 21 Norte 0 -- -- 84
2020-08-27 16:00:00 22.3 14 Norte 19 Norte 0 -- -- 88
2020-08-27 15:00:00 22.3 11 Norte 22 Norte 0 -- -- 87
2020-08-27 14:00:00 23.2 15 Noroeste 25 Noroeste 0 -- -- 83
2020-08-27 13:00:00 24.2 13 Noroeste 31 Noroeste 0 -- -- 82
2020-08-27 12:00:00 24.3 23 Noroeste 30 Noroeste 0 -- -- 78
2020-08-27 11:00:00 25.6 4 Noroeste 10 Oeste 0 -- -- 74
2020-08-27 10:00:00 23.2 4 Oeste 14 Sudoeste 0 -- -- 83
2020-08-27 09:00:00 20.3 9 Sudoeste 13 Sudoeste 0 -- -- 93
2020-08-27 08:00:00 19.5 5 Oeste 8 Sur 0 -- -- 95
2020-08-27 07:00:00 19.3 7 Sur 17 Sudeste 0 -- -- 96
2020-08-27 06:00:00 19.3 8 Sur 14 Sudeste 0 -- -- 97
2020-08-27 05:00:00 19.1 6 Sudoeste 8 Sudoeste 0 -- -- 97
2020-08-27 04:00:00 19 5 Sudoeste 10 Sur 0 -- -- 97
2020-08-27 03:00:00 19.2 8 Sur 13 Sudeste 0 -- -- 97
2020-08-27 02:00:00 19.4 8 Sur 12 Sudeste 0 -- -- 95
2020-08-27 01:00:00 20 10 Sudeste 14 Sudeste 0 -- -- 94
2020-08-27 00:00:00 20.5 6 Este 9 Este 0 -- -- 93
2020-08-26 23:00:00 21 5 Sudeste 7 Sudeste 0 -- -- 91
2020-08-26 22:00:00 21.3 3 Nordeste 6 Este 0 -- -- 90
2020-08-26 21:00:00 21.8 4 Nordeste 15 Nordeste 0 -- -- 88
2020-08-26 20:00:00 22.7 13 Nordeste 18 Nordeste 0 -- -- 85
2020-08-26 19:00:00 24.3 13 Nordeste 21 Nordeste 0 -- -- 80
2020-08-26 18:00:00 24.7 14 Nordeste 30 Nordeste 0 -- -- 81
2020-08-26 17:00:00 25.2 21 Nordeste 31 Nordeste 0 -- -- 78
2020-08-26 16:00:00 26.1 20 Nordeste 33 Nordeste 0 -- -- 76
2020-08-26 15:00:00 25.9 22 Norte 29 Nordeste 0 -- -- 79
2020-08-26 14:00:00 27 15 Nordeste 23 Norte 0 -- -- 72
2020-08-26 13:00:00 25.5 11 Norte 18 Norte 0 -- -- 77
2020-08-26 12:00:00 25.3 11 Nordeste 17 Norte 0 -- -- 74
2020-08-26 11:00:00 23.6 9 Sudeste 14 Sudeste 0 -- -- 77
2020-08-26 10:00:00 21.4 8 Sudeste 15 Sudeste 0 -- -- 87
2020-08-26 09:00:00 20.3 8 Sudeste 12 Sudeste 0 -- -- 94
2020-08-26 08:00:00 20.1 4 Este 12 Sudeste 0 -- -- 95
2020-08-26 07:00:00 20 6 Sudeste 9 Sudeste 0 -- -- 96
2020-08-26 06:00:00 20.2 6 Nordeste 9 Nordeste 0 -- -- 93
2020-08-26 05:00:00 20.7 4 Sudoeste 8 Sur 0 -- -- 90
2020-08-26 04:00:00 20.5 0 Calma 5 Nordeste 0 -- -- 93
2020-08-26 03:00:00 20.6 3 Nordeste 9 Nordeste 0 -- -- 94
2020-08-26 02:00:00 20.9 4 Nordeste 8 Nordeste 0 -- -- 92
2020-08-26 01:00:00 21.6 5 Sudeste 9 Sudeste 0 -- -- 83
2020-08-26 00:00:00 21.8 0 Calma 4 Sudeste 0 -- -- 81